Terminal Aerodrome Forecast
Issued by NWS Sterling, VA

Home | Current Version | Previous Version | Text Only | Print | Product List | Glossary On
Versions: 1 2 3 4 5 6 7 8 9 10 11 12 13 14 15 16 17 18 19 20 21 22 23 24 25 26 27 28 29 30
265
FTUS41 KLWX 300526
TAFIAD
TAF
KIAD 300526Z 3006/3112 05005KT P6SM FEW250
     FM301000 09003KT P6SM BKN070
     FM301900 15007KT P6SM BKN050 OVC180
     FM310600 14007KT 6SM -RA BR OVC012=

USA.gov is the U.S. government's official web portal to all federal, state and local government web resources and services.